Decoded Metar for EPLL (LODZ in POLAND) (IATA:N/A) | Meteo·Mobile Aviation Weather
aviador You're here:

EPLL Decoded Metar

LODZ in POLAND
Report Time2019-07-16 10:00:00
UTC Time2019-07-16 10:23:27
Flight Rules vfr VFR
Wind260° at 17 kt
W.Decomp.*RWY 25: 16.9 kt HW 1.8 kt RCW
Visibility9999 m
Phenomena:N/A
Clouds:Overcast 032 Hf
Expected CloudBase > 3,200 ft AGL from Temp-Dew spread
Ceiling3,200 ft
Temp16°C (ISA +2)
Dew Point08°C (59% RH)
AAT9.4°C
QNH1012 hPa
Density Alt1,043 ft
Elevation604 ft
Report Wrong Elevation
Raw Report
EPLL 161000Z 26017KT 9999 OVC032 16/08 Q1012=

Extra information for EPLL:More info

Metar Taf Metar & Taf Last 4 Metars F.Rules Stats Wind Profile Meteogram Temp Stats Airport Information Weather charts Add Link Nearby VenuesMetar ALERT Operation Metar Decoded Social comments